Map

Track Data

SID SEASON NUMBER BASIN SUBBASIN NAME ISO_TIME NATURE LAT LON WMO_WIND WMO_PRES WMO_AGENCY TRACK_TYPE DIST2LAND LANDFALL IFLAG USA_AGENCY USA_ATCF_ID USA_LAT USA_LON USA_RECORD USA_STATUS USA_WIND USA_PRES USA_SSHS USA_R34_NE USA_R34_SE USA_R34_SW USA_R34_NW USA_R50_NE USA_R50_SE USA_R50_SW USA_R50_NW USA_R64_NE USA_R64_SE USA_R64_SW USA_R64_NW USA_POCI USA_ROCI USA_RMW USA_EYE TOKYO_LAT TOKYO_LON TOKYO_GRADE TOKYO_WIND TOKYO_PRES TOKYO_R50_DIR TOKYO_R50_LONG TOKYO_R50_SHORT TOKYO_R30_DIR TOKYO_R30_LONG TOKYO_R30_SHORT TOKYO_LAND CMA_LAT CMA_LON CMA_CAT CMA_WIND CMA_PRES HKO_LAT HKO_LON HKO_CAT HKO_WIND HKO_PRES NEWDELHI_LAT NEWDELHI_LON NEWDELHI_GRADE NEWDELHI_WIND NEWDELHI_PRES NEWDELHI_CI NEWDELHI_DP NEWDELHI_POCI REUNION_LAT REUNION_LON REUNION_TYPE REUNION_WIND REUNION_PRES REUNION_TNUM REUNION_CI REUNION_RMW REUNION_R34_NE REUNION_R34_SE REUNION_R34_SW REUNION_R34_NW REUNION_R50_NE REUNION_R50_SE REUNION_R50_SW REUNION_R50_NW REUNION_R64_NE REUNION_R64_SE REUNION_R64_SW REUNION_R64_NW BOM_LAT BOM_LON BOM_TYPE BOM_WIND BOM_PRES BOM_TNUM BOM_CI BOM_RMW BOM_R34_NE BOM_R34_SE BOM_R34_SW BOM_R34_NW BOM_R50_NE BOM_R50_SE BOM_R50_SW BOM_R50_NW BOM_R64_NE BOM_R64_SE BOM_R64_SW BOM_R64_NW BOM_ROCI BOM_POCI BOM_EYE BOM_POS_METHOD BOM_PRES_METHOD NADI_LAT NADI_LON NADI_CAT NADI_WIND NADI_PRES WELLINGTON_LAT WELLINGTON_LON WELLINGTON_WIND WELLINGTON_PRES DS824_LAT DS824_LON DS824_STAGE DS824_WIND DS824_PRES TD9636_LAT TD9636_LON TD9636_STAGE TD9636_WIND TD9636_PRES TD9635_LAT TD9635_LON TD9635_WIND TD9635_PRES TD9635_ROCI NEUMANN_LAT NEUMANN_LON NEUMANN_CLASS NEUMANN_WIND NEUMANN_PRES MLC_LAT MLC_LON MLC_CLASS MLC_WIND MLC_PRES USA_GUST BOM_GUST BOM_GUST_PER REUNION_GUST REUNION_GUST_PER USA_SEAHGT USA_SEARAD_NE USA_SEARAD_SE USA_SEARAD_SW USA_SEARAD_NW STORM_SPEED STORM_DIR
1865282N19289 1865 22 NA NA NOT_NAMED 1865-10-08 12:00:00 TS 18.8000 -70.6000 main 0 0 _____________O -1 18.8000 -70.6000 TD 30 3 5
1865282N19289 1865 22 NA NA NOT_NAMED 1865-10-08 15:00:00 TS 18.9625 -70.5975 main 0 0 _____________P -1 18.9625 -70.5975 TD 30 3 0
1865282N19289 1865 22 NA NA NOT_NAMED 1865-10-08 18:00:00 TS 19.1000 -70.6000 main 0 0 _____________O -1 19.1000 -70.6000 TD 30 2 0
1865282N19289 1865 22 NA NA NOT_NAMED 1865-10-08 21:00:00 TS 19.2000 -70.6075 main 0 0 _____________P -1 19.2000 -70.6075 TD 32 2 8
1865282N19289 1865 22 NA NA NOT_NAMED 1865-10-09 00:00:00 TS 19.3000 -70.6000 main 0 0 _____________O -1 19.3000 -70.6000 TS 35 3 13
1865282N19289 1865 22 NA NA NOT_NAMED 1865-10-09 03:00:00 TS 19.4500 -70.5500 main 0 0 _____________P -1 19.4500 -70.5500 TS 35 3 17
1865282N19289 1865 22 NA NA NOT_NAMED 1865-10-09 06:00:00 TS 19.6000 -70.5000 main 0 0 _____________O -1 19.6000 -70.5000 TS 35 2 10
1865282N19289 1865 22 NA NA NOT_NAMED 1865-10-09 09:00:00 TS 19.6775 -70.5074 main 0 0 _____________P -1 19.6775 -70.5074 TS 35 2 8
1865282N19289 1865 22 NA NA NOT_NAMED 1865-10-09 12:00:00 TS 19.8000 -70.5000 main 10 10 _____________O -1 19.8000 -70.5000 TS 35 4 9
1865282N19289 1865 22 NA NA NOT_NAMED 1865-10-09 15:00:00 TS 20.0775 -70.4375 main 39 39 _____________P -1 20.0775 -70.4375 TS 35 6 18
1865282N19289 1865 22 NA NA NOT_NAMED 1865-10-09 18:00:00 TS 20.4000 -70.3000 main 74 74 _____________O -1 20.4000 -70.3000 TS 35 7 30
1865282N19289 1865 22 NA NA NOT_NAMED 1865-10-09 21:00:00 TS 20.6500 -70.0874 main 103 103 _____________P -1 20.6500 -70.0874 TS 35 7 43
1865282N19289 1865 22 NA NA NOT_NAMED 1865-10-10 00:00:00 TS 20.9000 -69.8000 main 146 146 _____________O -1 20.9000 -69.8000 TS 35 8 47
1865282N19289 1865 22 NA NA NOT_NAMED 1865-10-10 03:00:00 TS 21.2000 -69.4650 main 186 186 _____________P -1 21.2000 -69.4650 TS 35 9 47
1865282N19289 1865 22 NA NA NOT_NAMED 1865-10-10 06:00:00 TS 21.5000 -69.1000 main 232 232 _____________O -1 21.5000 -69.1000 TS 35 9 52
1865282N19289 1865 22 NA NA NOT_NAMED 1865-10-10 09:00:00 TS 21.7350 -68.7422 main 271 271 _____________P -1 21.7350 -68.7422 TS 35 8 52
1865282N19289 1865 22 NA NA NOT_NAMED 1865-10-10 12:00:00 TS 22.0000 -68.4000 main 315 315 _____________O -1 22.0000 -68.4000 TS 35 9 43
1865282N19289 1865 22 NA NA NOT_NAMED 1865-10-10 15:00:00 TS 22.3774 -68.0850 main 368 368 _____________P -1 22.3774 -68.0850 TS 35 10 35
1865282N19289 1865 22 NA NA NOT_NAMED 1865-10-10 18:00:00 TS 22.8000 -67.8000 main 421 421 _____________O -1 22.8000 -67.8000 TS 35 10 31
1865282N19289 1865 22 NA NA NOT_NAMED 1865-10-10 21:00:00 TS 23.1999 -67.5497 main 474 474 _____________P -1 23.1999 -67.5497 TS 37 9 30
1865282N19289 1865 22 NA NA NOT_NAMED 1865-10-11 00:00:00 TS 23.6000 -67.3000 main 523 523 _____________O -1 23.6000 -67.3000 TS 40 9 32
1865282N19289 1865 22 NA NA NOT_NAMED 1865-10-11 03:00:00 TS 24.0000 -67.0000 main 576 576 _____________P -1 24.0000 -67.0000 TS 40 10 34
1865282N19289 1865 22 NA NA NOT_NAMED 1865-10-11 06:00:00 TS 24.4000 -66.7000 main 630 630 _____________O -1 24.4000 -66.7000 TS 40 10 31
1865282N19289 1865 22 NA NA NOT_NAMED 1865-10-11 09:00:00 TS 24.8073 -66.4572 main 679 679 _____________P -1 24.8073 -66.4572 TS 40 9 30
1865282N19289 1865 22 NA NA NOT_NAMED 1865-10-11 12:00:00 TS 25.2000 -66.2000 main 732 732 _____________O -1 25.2000 -66.2000 TS 40 9 36
1865282N19289 1865 22 NA NA NOT_NAMED 1865-10-11 15:00:00 TS 25.5575 -65.8649 main 786 786 _____________P -1 25.5575 -65.8649 TS 40 9 42
1865282N19289 1865 22 NA NA NOT_NAMED 1865-10-11 18:00:00 TS 25.9000 -65.5000 main 834 834 _____________O -1 25.9000 -65.5000 TS 40 10 43
1865282N19289 1865 22 NA NA NOT_NAMED 1865-10-11 21:00:00 TS 26.2574 -65.1499 main 884 884 _____________P -1 26.2574 -65.1499 TS 40 9 42
1865282N19289 1865 22 NA NA NOT_NAMED 1865-10-12 00:00:00 TS 26.6000 -64.8000 main 920 920 _____________O -1 26.6000 -64.8000 TS 40 9 45
1865282N19289 1865 22 NA NA NOT_NAMED 1865-10-12 03:00:00 TS 26.8924 -64.4496 main 958 958 _____________P -1 26.8924 -64.4496 TS 42 9 46
1865282N19289 1865 22 NA NA NOT_NAMED 1865-10-12 06:00:00 TS 27.2000 -64.1000 main 995 995 _____________O -1 27.2000 -64.1000 TS 45 8 38
1865282N19289 1865 22 NA NA NOT_NAMED 1865-10-12 09:00:00 TS 27.5532 -63.8750 main 1042 1042 _____________P -1 27.5532 -63.8750 TS 45 10 38
1865282N19289 1865 22 NA NA NOT_NAMED 1865-10-12 12:00:00 TS 28.0000 -63.4000 main 1096 1096 _____________O -1 28.0000 -63.4000 TS 45 17 53
1865282N19289 1865 22 NA NA NOT_NAMED 1865-10-12 15:00:00 TS 28.5788 -62.3362 main 1188 1188 _____________P -1 28.5788 -62.3362 TS 45 24 60
1865282N19289 1865 22 NA NA NOT_NAMED 1865-10-12 18:00:00 TS 29.2000 -61.0000 main 1294 1294 _____________O -1 29.2000 -61.0000 TS 45 25 62
1865282N19289 1865 22 NA NA NOT_NAMED 1865-10-12 21:00:00 TS 29.7565 -59.7560 main 1402 1402 _____________P -1 29.7565 -59.7560 TS 45 24 63
1865282N19289 1865 22 NA NA NOT_NAMED 1865-10-13 00:00:00 TS 30.3000 -58.5000 main 1510 1510 _____________O -1 30.3000 -58.5000 TS 45 24 63
1865282N19289 1865 22 NA NA NOT_NAMED 1865-10-13 03:00:00 TS 30.8488 -57.2486 main 1583 1567 _____________P -1 30.8488 -57.2486 TS 45 24 63
1865282N19289 1865 22 NA NA NOT_NAMED 1865-10-13 06:00:00 TS 31.4000 -56.0000 main 1574 1569 _____________O -1 31.4000 -56.0000 TS 45 24 63
1865282N19289 1865 22 NA NA NOT_NAMED 1865-10-13 09:00:00 TS 31.9340 -54.7406 main 1580 1553 _____________P -1 31.9340 -54.7406 TS 45 24 63
1865282N19289 1865 22 NA NA NOT_NAMED 1865-10-13 12:00:00 TS 32.5000 -53.5000 main 1556 1503 _____________O -1 32.5000 -53.5000 TS 45 24 60
1865282N19289 1865 22 NA NA NOT_NAMED 1865-10-13 15:00:00 TS 33.1411 -52.2915 main 1504 1434 _____________P -1 33.1411 -52.2915 TS 45 24 57
1865282N19289 1865 22 NA NA NOT_NAMED 1865-10-13 18:00:00 TS 33.8000 -51.1000 main 1435 1383 _____________O -1 33.8000 -51.1000 TS 45 24 58
1865282N19289 1865 22 NA NA NOT_NAMED 1865-10-13 21:00:00 TS 34.3988 -49.8977 main 1385 1341 _____________P -1 34.3988 -49.8977 TS 47 23 59
1865282N19289 1865 22 NA NA NOT_NAMED 1865-10-14 00:00:00 ET 35.0000 -48.7000 main 1344 1309 _____________O -1 35.0000 -48.7000 EX 50 23 58
1865282N19289 1865 22 NA NA NOT_NAMED 1865-10-14 03:00:00 ET 35.6490 -47.4914 main 1312 1276 _____________P -1 35.6490 -47.4914 EX 50 23 56
1865282N19289 1865 22 NA NA NOT_NAMED 1865-10-14 06:00:00 ET 36.3000 -46.3000 main 1279 1266 _____________O -1 36.3000 -46.3000 EX 50 21 57
1865282N19289 1865 22 NA NA NOT_NAMED 1865-10-14 09:00:00 ET 36.8118 -45.2578 main 1269 1257 _____________P -1 36.8118 -45.2578 EX 50 22 57
1865282N19289 1865 22 NA NA NOT_NAMED 1865-10-14 12:00:00 ET 37.5000 -44.0000 main 1262 1252 _____________O -1 37.5000 -44.0000 EX 50 30 53
1865282N19289 1865 22 NA NA NOT_NAMED 1865-10-14 15:00:00 ET 38.6040 -42.2723 main 1255 1252 _____________P -1 38.6040 -42.2723 EX 52 39 52
1865282N19289 1865 22 NA NA NOT_NAMED 1865-10-14 18:00:00 ET 39.9000 -40.0000 main 1295 1294 _____________O -1 39.9000 -40.0000 EX 55 47 58
1865282N19289 1865 22 NA NA NOT_NAMED 1865-10-14 21:00:00 ET 41.1059 -37.1108 main 1414 1414 _____________P -1 41.1059 -37.1108 EX 57 51 62
1865282N19289 1865 22 NA NA NOT_NAMED 1865-10-15 00:00:00 ET 42.3000 -34.0000 main 1564 1564 _____________O -1 42.3000 -34.0000 EX 60 50 61
1865282N19289 1865 22 NA NA NOT_NAMED 1865-10-15 03:00:00 ET 43.4981 -31.2013 main 1713 1549 _____________P -1 43.4981 -31.2013 EX 60 46 59
1865282N19289 1865 22 NA NA NOT_NAMED 1865-10-15 06:00:00 ET 44.7000 -28.5000 main 1541 1307 _____________O -1 44.7000 -28.5000 EX 60 45 58
1865282N19289 1865 22 NA NA NOT_NAMED 1865-10-15 09:00:00 ET 45.8744 -25.7859 main 1295 1068 _____________P -1 45.8744 -25.7859 EX 60 45 59
1865282N19289 1865 22 NA NA NOT_NAMED 1865-10-15 12:00:00 ET 47.0000 -23.0000 main 1050 _____________O -1 47.0000 -23.0000 EX 60 44 59

About IBTrACS Database

This database is a web-friendly format of International Best Track Archive for Climate Stewardship (IBTrACS), a global best track data archive curated by NOAA dating back to 1842.

Updated: 2021-12-01